Time;durP1;ratioP1;P1;durP2;ratioP2;P2;SDS_P1;SDS_P2;PMS_P1;PMS_P2;Temp;Humidity;BMP_temperature;BMP_pressure;BME280_temperature;BME280_humidity;BME280_pressure;Samples;Min_cycle;Max_cycle;Signal;HPM_P1;HPM_P2
2021/12/30 00:00:28;;;;;;;32.13;16.50;;;;;;;9.69;100.00;99429.59;5015703;28;20026;-76
2021/12/30 00:02:53;;;;;;;35.35;15.30;;;;;;;9.76;100.00;99426.69;5014271;28;20032;-77
2021/12/30 00:05:19;;;;;;;34.22;14.90;;;;;;;9.81;100.00;99422.91;5015483;28;20029;-77
2021/12/30 00:07:46;;;;;;;32.47;15.45;;;;;;;9.74;100.00;99425.88;5015352;28;20482;-76
2021/12/30 00:10:11;;;;;;;37.83;16.23;;;;;;;9.71;100.00;99422.44;5015251;28;20029;-77
2021/12/30 00:12:37;;;;;;;37.63;16.30;;;;;;;9.83;100.00;99417.50;5015345;28;20022;-76
2021/12/30 00:15:05;;;;;;;37.83;16.27;;;;;;;9.83;100.00;99414.84;5015461;28;20109;-76
2021/12/30 00:17:31;;;;;;;36.47;15.68;;;;;;;9.82;100.00;99413.09;5015273;28;20033;-77
2021/12/30 00:19:58;;;;;;;35.20;15.63;;;;;;;9.86;100.00;99409.38;5015406;28;20383;-77
2021/12/30 00:22:23;;;;;;;42.33;15.98;;;;;;;9.82;100.00;99421.97;5015118;28;20505;-77
2021/12/30 00:24:49;;;;;;;36.20;14.68;;;;;;;9.80;100.00;99425.63;5015174;28;20030;-76
2021/12/30 00:27:14;;;;;;;32.92;14.30;;;;;;;9.78;100.00;99431.03;5015414;28;20044;-76
2021/12/30 00:29:39;;;;;;;35.45;14.25;;;;;;;9.86;100.00;99422.72;5014872;28;20471;-77
2021/12/30 00:32:05;;;;;;;34.08;15.02;;;;;;;9.83;100.00;99417.50;5014979;28;20034;-77
2021/12/30 00:34:30;;;;;;;33.40;15.15;;;;;;;9.76;100.00;99402.69;5014983;28;20029;-76
2021/12/30 00:36:55;;;;;;;31.45;14.07;;;;;;;9.91;100.00;99407.41;5014954;28;20404;-76
2021/12/30 00:39:21;;;;;;;37.28;13.98;;;;;;;9.89;100.00;99425.28;5014828;28;20394;-76
2021/12/30 00:41:47;;;;;;;37.33;13.90;;;;;;;9.86;100.00;99446.72;5014393;28;20113;-76
2021/12/30 00:44:12;;;;;;;37.05;14.45;;;;;;;9.84;100.00;99448.59;5014993;28;20398;-76
2021/12/30 00:46:37;;;;;;;40.67;14.13;;;;;;;9.88;100.00;99451.97;5014770;28;20071;-76
2021/12/30 00:49:03;;;;;;;39.92;13.95;;;;;;;9.87;100.00;99469.75;5014685;28;20100;-76
2021/12/30 00:51:28;;;;;;;31.17;12.85;;;;;;;9.85;100.00;99492.97;5014661;28;20026;-76
2021/12/30 00:53:54;;;;;;;34.92;12.80;;;;;;;9.85;100.00;99498.28;5014901;28;20172;-76
2021/12/30 00:56:22;;;;;;;39.70;12.00;;;;;;;9.84;100.00;99497.41;5036373;22;20393;-83
2021/12/30 00:58:48;;;;;;;30.60;11.05;;;;;;;9.82;100.00;99503.75;4996443;28;20050;-82
2021/12/30 01:01:13;;;;;;;36.60;11.85;;;;;;;9.77;100.00;99511.94;4994032;28;20021;-81
2021/12/30 01:03:39;;;;;;;32.63;11.32;;;;;;;9.87;100.00;99516.91;4997130;28;20419;-84
2021/12/30 01:06:04;;;;;;;32.35;12.48;;;;;;;9.68;100.00;99512.31;5014245;28;20045;-84
2021/12/30 01:08:30;;;;;;;32.25;12.02;;;;;;;9.59;100.00;99519.72;4997871;28;20054;-83
2021/12/30 01:10:56;;;;;;;42.85;11.63;;;;;;;9.70;100.00;99527.31;4997631;28;20026;-84
2021/12/30 01:13:27;;;;;;;30.95;11.20;;;;;;;9.71;100.00;99534.38;4996199;28;20035;-84
2021/12/30 01:15:59;;;;;;;34.65;10.85;;;;;;;9.68;100.00;99523.84;4998090;28;20030;-83
2021/12/30 01:18:43;;;;;;;31.07;10.77;;;;;;;9.68;100.00;99512.31;4997280;28;20029;-83
2021/12/30 01:21:11;;;;;;;32.60;10.52;;;;;;;9.68;100.00;99521.19;4998455;28;20026;-83
2021/12/30 01:23:41;;;;;;;36.13;11.18;;;;;;;9.65;100.00;99531.94;4994282;28;20479;-83
2021/12/30 01:26:06;;;;;;;28.25;11.13;;;;;;;9.59;100.00;99529.50;4994553;28;20027;-83
2021/12/30 01:28:32;;;;;;;29.83;10.70;;;;;;;9.56;100.00;99543.81;4994902;28;20048;-83
2021/12/30 01:30:58;;;;;;;39.53;10.45;;;;;;;9.60;100.00;99552.56;4996225;28;20026;-84
2021/12/30 01:33:24;;;;;;;34.47;11.75;;;;;;;9.52;100.00;99549.31;4994219;28;20486;-83
2021/12/30 01:35:49;;;;;;;38.47;10.75;;;;;;;9.50;100.00;99547.59;4993791;28;20026;-83
2021/12/30 01:38:16;;;;;;;32.13;10.35;;;;;;;9.59;100.00;99566.81;4994924;28;20152;-83
2021/12/30 01:40:45;;;;;;;29.80;9.80;;;;;;;9.47;100.00;99574.38;4994593;28;20491;-83
2021/12/30 01:43:11;;;;;;;25.75;8.98;;;;;;;9.56;100.00;99588.28;4993441;28;20038;-82
2021/12/30 01:45:38;;;;;;;41.78;10.82;;;;;;;9.43;100.00;99578.03;4994365;28;20030;-82
2021/12/30 01:48:04;;;;;;;38.58;11.88;;;;;;;9.42;100.00;99580.78;4993833;28;20053;-81
2021/12/30 01:50:30;;;;;;;36.35;10.05;;;;;;;9.36;100.00;99572.09;4994601;28;20026;-83
2021/12/30 01:52:55;;;;;;;33.97;8.32;;;;;;;9.40;100.00;99570.19;4993680;28;20090;-83
2021/12/30 01:55:22;;;;;;;31.42;9.23;;;;;;;9.35;100.00;99596.13;4993792;28;20033;-83
2021/12/30 01:57:48;;;;;;;34.65;8.90;;;;;;;9.40;100.00;99604.84;4994171;28;20089;-82
2021/12/30 02:00:18;;;;;;;33.92;8.82;;;;;;;9.36;100.00;99604.06;4995037;28;20022;-80
2021/12/30 02:02:44;;;;;;;39.78;8.95;;;;;;;9.39;100.00;99603.06;4995112;28;20037;-83
2021/12/30 02:05:10;;;;;;;33.65;8.07;;;;;;;9.38;100.00;99607.53;4994084;28;20034;-83
2021/12/30 02:07:36;;;;;;;42.22;8.75;;;;;;;9.33;100.00;99616.63;4994283;28;20372;-83
2021/12/30 02:10:03;;;;;;;37.38;8.27;;;;;;;9.37;100.00;99605.81;4996661;28;20033;-84
2021/12/30 02:12:34;;;;;;;31.10;7.93;;;;;;;9.35;100.00;99614.78;5008535;28;20030;-82
2021/12/30 02:14:59;;;;;;;30.15;7.00;;;;;;;9.26;100.00;99611.50;5010732;28;20094;-82
2021/12/30 02:17:26;;;;;;;29.15;6.68;;;;;;;9.23;100.00;99626.72;5010999;28;20022;-82
2021/12/30 02:19:58;;;;;;;29.05;7.90;;;;;;;9.18;100.00;99626.88;5012051;28;20050;-82
2021/12/30 02:22:23;;;;;;;39.08;8.02;;;;;;;9.22;100.00;99640.97;5013123;28;20030;-82
2021/12/30 02:24:51;;;;;;;34.95;7.78;;;;;;;9.18;100.00;99642.00;5012886;28;20048;-82
2021/12/30 02:27:17;;;;;;;29.42;8.10;;;;;;;9.12;100.00;99638.63;5011544;28;20030;-82
2021/12/30 02:29:42;;;;;;;30.05;9.25;;;;;;;9.07;100.00;99631.75;5007853;28;20022;-84
2021/12/30 02:32:08;;;;;;;24.35;8.35;;;;;;;9.03;100.00;99628.28;5004134;28;20046;-84
2021/12/30 02:34:34;;;;;;;35.47;8.82;;;;;;;9.01;100.00;99625.69;5001974;28;20030;-84
2021/12/30 02:36:59;;;;;;;41.40;9.90;;;;;;;9.04;100.00;99620.28;5003352;28;20058;-84
2021/12/30 02:39:25;;;;;;;33.80;9.65;;;;;;;9.14;100.00;99614.63;5003368;28;20053;-84
2021/12/30 02:41:50;;;;;;;34.35;9.55;;;;;;;9.16;100.00;99629.63;5002924;28;20058;-84
2021/12/30 02:44:17;;;;;;;33.13;8.07;;;;;;;9.15;100.00;99621.66;5002667;28;20022;-84
2021/12/30 02:46:42;;;;;;;34.08;7.82;;;;;;;9.15;100.00;99622.53;4996866;28;20029;-83
2021/12/30 02:49:09;;;;;;;31.13;8.88;;;;;;;9.13;100.00;99612.88;4993510;28;20105;-84
2021/12/30 02:51:34;;;;;;;34.70;9.23;;;;;;;9.14;100.00;99611.94;4999488;28;20085;-84
2021/12/30 02:54:01;;;;;;;42.38;9.63;;;;;;;9.13;100.00;99626.19;5003166;28;20026;-84
2021/12/30 02:56:29;;;;;;;35.00;9.55;;;;;;;9.21;100.00;99612.59;5002269;28;20113;-83
2021/12/30 02:58:54;;;;;;;37.13;8.68;;;;;;;9.15;100.00;99611.88;5001495;28;20058;-84
2021/12/30 03:01:21;;;;;;;34.65;9.35;;;;;;;9.04;100.00;99641.56;5002141;28;20022;-84
2021/12/30 03:03:47;;;;;;;38.60;10.68;;;;;;;9.18;100.00;99648.19;5003689;28;20026;-83
2021/12/30 03:06:14;;;;;;;36.20;10.25;;;;;;;9.00;100.00;99660.34;5003952;28;20443;-84
2021/12/30 03:08:40;;;;;;;38.15;9.82;;;;;;;9.02;100.00;99651.38;5006525;28;20029;-83
2021/12/30 03:11:06;;;;;;;34.55;8.70;;;;;;;9.01;100.00;99646.13;5007305;28;20018;-84
2021/12/30 03:13:33;;;;;;;38.17;10.02;;;;;;;9.05;100.00;99637.97;5007557;28;20034;-84
2021/12/30 03:16:06;;;;;;;38.22;11.18;;;;;;;9.05;100.00;99637.97;5007004;28;20022;-84
2021/12/30 03:18:33;;;;;;;;;;;;;;;9.10;100.00;99644.94;5005457;28;20030;-84
2021/12/30 03:21:00;;;;;;;38.72;10.65;;;;;;;9.10;100.00;99642.25;5005380;28;19909;-84
2021/12/30 03:23:26;;;;;;;40.78;11.10;;;;;;;9.08;100.00;99658.31;4999586;28;20085;-83
2021/12/30 03:25:51;;;;;;;40.38;11.27;;;;;;;9.12;100.00;99659.09;4997186;28;20034;-83
2021/12/30 03:28:17;;;;;;;33.75;10.13;;;;;;;9.15;100.00;99664.28;4996089;28;20033;-82
2021/12/30 03:30:43;;;;;;;36.70;9.95;;;;;;;9.13;100.00;99676.78;5002155;28;20022;-83
2021/12/30 03:33:08;;;;;;;39.85;10.90;;;;;;;9.15;100.00;99680.25;5004484;28;20383;-84
2021/12/30 03:35:34;;;;;;;37.88;12.07;;;;;;;9.08;100.00;99684.06;5004485;28;20026;-83
2021/12/30 03:37:59;;;;;;;29.10;11.05;;;;;;;9.12;100.00;99691.03;5004059;28;20030;-84
2021/12/30 03:40:25;;;;;;;35.70;11.00;;;;;;;9.12;100.00;99685.72;5005771;28;20391;-83
2021/12/30 03:42:50;;;;;;;32.60;11.60;;;;;;;9.12;100.00;99686.56;5002086;28;20034;-83
2021/12/30 03:45:16;;;;;;;32.92;10.65;;;;;;;9.03;100.00;99677.09;5000741;28;20026;-83
2021/12/30 03:47:46;;;;;;;34.72;11.35;;;;;;;9.01;100.00;99670.97;5000527;28;20094;-83
2021/12/30 03:50:19;;;;;;;39.65;12.35;;;;;;;9.07;100.00;99671.69;4998485;28;20419;-84
2021/12/30 03:52:50;;;;;;;44.33;11.88;;;;;;;9.12;100.00;99677.72;4996134;28;20045;-83
2021/12/30 03:55:17;;;;;;;41.05;11.60;;;;;;;9.12;100.00;99673.25;4996972;28;20030;-84
2021/12/30 03:57:43;;;;;;;40.40;11.15;;;;;;;9.09;100.00;99677.81;4995568;28;20069;-84
2021/12/30 04:00:09;;;;;;;38.25;11.80;;;;;;;9.07;100.00;99674.34;4995183;28;20023;-83
2021/12/30 04:02:34;;;;;;;40.88;12.13;;;;;;;9.11;100.00;99689.28;4996548;28;20073;-84
2021/12/30 04:05:00;;;;;;;44.30;12.07;;;;;;;9.09;100.00;99702.66;4996981;28;20023;-84
2021/12/30 04:07:25;;;;;;;35.00;12.27;;;;;;;9.16;100.00;99704.19;4995544;28;20027;-82
2021/12/30 04:09:51;;;;;;;41.22;13.20;;;;;;;9.13;100.00;99700.75;4995545;28;20030;-84
2021/12/30 04:12:18;;;;;;;40.25;12.63;;;;;;;9.13;100.00;99698.97;4998068;28;20042;-85
2021/12/30 04:14:43;;;;;;;41.17;13.48;;;;;;;9.06;100.00;99692.13;4998942;28;20050;-85
2021/12/30 04:17:09;;;;;;;40.05;12.80;;;;;;;9.14;100.00;99689.19;4997168;28;20026;-83
2021/12/30 04:19:34;;;;;;;50.13;15.10;;;;;;;9.19;100.00;99689.03;4997819;28;20403;-82
2021/12/30 04:21:59;;;;;;;50.28;14.05;;;;;;;9.24;100.00;99698.63;5000036;28;20026;-82
2021/12/30 04:24:25;;;;;;;41.13;13.95;;;;;;;9.22;100.00;99703.13;4999330;28;20026;-82
2021/12/30 04:26:50;;;;;;;44.03;14.50;;;;;;;9.21;100.00;99688.06;4999683;28;20038;-82
2021/12/30 04:29:23;;;;;;;48.83;15.32;;;;;;;9.23;100.00;99682.66;4998924;28;20026;-82
2021/12/30 04:31:52;;;;;;;47.83;16.17;;;;;;;9.26;100.00;99678.13;4997405;28;20050;-82
2021/12/30 04:34:17;;;;;;;42.42;15.35;;;;;;;9.21;100.00;99672.06;4996881;28;20081;-82
2021/12/30 04:36:49;;;;;;;42.95;16.27;;;;;;;9.24;100.00;99668.44;4995590;28;20022;-82
2021/12/30 04:39:14;;;;;;;52.97;16.85;;;;;;;9.13;100.00;99666.13;4996513;28;20026;-83
2021/12/30 04:41:39;;;;;;;53.20;18.35;;;;;;;9.08;100.00;99652.97;4996117;28;20027;-82
2021/12/30 04:44:08;;;;;;;51.67;17.17;;;;;;;9.13;100.00;99666.13;4995963;28;20029;-82
2021/12/30 04:46:35;;;;;;;56.28;18.88;;;;;;;9.18;100.00;99666.84;4996186;28;20084;-82
2021/12/30 04:49:01;;;;;;;53.97;17.55;;;;;;;9.24;100.00;99674.63;4998771;28;20030;-82
2021/12/30 04:51:26;;;;;;;55.88;18.65;;;;;;;9.21;100.00;99682.72;4997576;28;20076;-82
2021/12/30 04:53:54;;;;;;;45.72;16.67;;;;;;;9.33;100.00;99684.09;4996182;28;20407;-82
2021/12/30 04:56:19;;;;;;;48.70;17.40;;;;;;;9.37;100.00;99682.19;4995885;28;20026;-84
2021/12/30 04:58:48;;;;;;;51.80;17.58;;;;;;;9.28;100.00;99673.59;4994714;28;20028;-82
2021/12/30 05:01:13;;;;;;;51.97;18.00;;;;;;;9.30;100.00;99667.34;4994618;28;20019;-82
2021/12/30 05:03:41;;;;;;;38.90;16.05;;;;;;;9.33;100.00;99672.59;4995863;28;20022;-83
2021/12/30 05:06:09;;;;;;;45.50;17.38;;;;;;;9.35;100.00;99670.75;4995348;28;20072;-83
2021/12/30 05:08:35;;;;;;;48.83;18.17;;;;;;;9.38;100.00;99670.63;4994517;28;20027;-83
2021/12/30 05:11:00;;;;;;;55.85;18.15;;;;;;;9.43;100.00;99683.78;4995330;28;20022;-82
2021/12/30 05:13:26;;;;;;;51.78;18.13;;;;;;;9.37;100.00;99680.41;4995046;28;20036;-81
2021/12/30 05:15:52;;;;;;;52.95;18.52;;;;;;;9.38;100.00;99670.63;4995131;28;20027;-81
2021/12/30 05:18:19;;;;;;;45.92;17.23;;;;;;;9.42;100.00;99655.38;4994052;28;20030;-81
2021/12/30 05:20:45;;;;;;;47.47;17.20;;;;;;;9.36;100.00;99656.47;4994023;28;20022;-81
2021/12/30 05:23:10;;;;;;;51.50;18.95;;;;;;;9.39;100.00;99651.91;4995067;28;20033;-82
2021/12/30 05:25:36;;;;;;;53.38;19.15;;;;;;;9.46;100.00;99641.91;4993877;28;20462;-82
2021/12/30 05:28:02;;;;;;;62.03;20.10;;;;;;;9.34;100.00;99653.00;4993869;28;20030;-81
2021/12/30 05:30:28;;;;;;;56.83;19.50;;;;;;;9.39;100.00;99640.38;4993582;28;20026;-83
2021/12/30 05:32:55;;;;;;;56.33;19.67;;;;;;;9.31;100.00;99645.97;4993844;28;20030;-82
2021/12/30 05:35:21;;;;;;;56.58;17.73;;;;;;;9.29;100.00;99639.84;4993856;28;20045;-83
2021/12/30 05:37:47;;;;;;;53.05;17.83;;;;;;;9.28;100.00;99649.63;4995406;28;20399;-83
2021/12/30 05:40:18;;;;;;;62.08;19.02;;;;;;;9.45;100.00;99652.63;4994681;28;20467;-82
2021/12/30 05:42:45;;;;;;;59.55;20.23;;;;;;;9.33;100.00;99664.59;4995179;28;20030;-83
2021/12/30 05:45:11;;;;;;;57.17;19.60;;;;;;;9.41;100.00;99677.63;4993485;28;20026;-83
2021/12/30 05:47:37;;;;;;;56.92;19.58;;;;;;;9.43;100.00;99673.13;4993227;28;20022;-83
2021/12/30 05:50:06;;;;;;;68.28;20.52;;;;;;;9.45;100.00;99692.59;4994178;28;20023;-83
2021/12/30 05:52:32;;;;;;;71.13;22.48;;;;;;;9.43;100.00;99679.31;4993422;28;20068;-83
2021/12/30 05:54:57;;;;;;;59.80;22.45;;;;;;;9.52;100.00;99677.25;4994592;28;20026;-83
2021/12/30 05:57:22;;;;;;;56.78;21.88;;;;;;;9.46;100.00;99687.19;4994109;28;20041;-83
2021/12/30 05:59:48;;;;;;;56.22;22.15;;;;;;;9.53;100.00;99673.66;4993148;28;20073;-83
2021/12/30 06:02:13;;;;;;;64.90;22.83;;;;;;;9.58;100.00;99685.03;4994719;28;20368;-83
2021/12/30 06:04:41;;;;;;;56.28;22.73;;;;;;;9.55;100.00;99683.34;4993214;28;20033;-83
2021/12/30 06:07:06;;;;;;;56.58;22.33;;;;;;;9.53;100.00;99695.00;4993157;28;20038;-82
2021/12/30 06:09:35;;;;;;;59.28;24.85;;;;;;;9.58;100.00;99685.03;4995331;28;20026;-83
2021/12/30 06:12:00;;;;;;;61.88;26.60;;;;;;;9.65;100.00;99672.34;4993446;28;20030;-83
2021/12/30 06:14:26;;;;;;;56.95;24.63;;;;;;;9.66;100.00;99679.44;4994439;28;20093;-83
2021/12/30 06:16:51;;;;;;;58.85;25.23;;;;;;;9.69;100.00;99685.50;4994499;28;20034;-83
2021/12/30 06:19:16;;;;;;;64.93;26.05;;;;;;;9.65;100.00;99689.22;4996244;28;20030;-84
2021/12/30 06:21:42;;;;;;;60.05;26.23;;;;;;;9.74;100.00;99696.00;4994885;28;20022;-83
2021/12/30 06:24:08;;;;;;;58.63;22.70;;;;;;;9.85;100.00;99687.63;4993562;28;20026;-84
2021/12/30 06:26:33;;;;;;;44.33;21.90;;;;;;;9.81;100.00;99686.00;4993654;28;20027;-83
2021/12/30 06:28:59;;;;;;;49.60;21.13;;;;;;;9.78;100.00;99689.66;4992703;28;20047;-85
2021/12/30 06:31:24;;;;;;;40.30;18.90;;;;;;;9.81;100.00;99683.34;4992770;28;20117;-81
2021/12/30 06:33:49;;;;;;;44.58;20.20;;;;;;;9.77;100.00;99695.03;4992732;28;20027;-83
2021/12/30 06:36:17;;;;;;;43.25;18.67;;;;;;;9.68;100.00;99699.78;4992780;28;20522;-83
2021/12/30 06:38:42;;;;;;;42.38;19.58;;;;;;;9.78;100.00;99686.97;4995010;28;20034;-83
2021/12/30 06:41:07;;;;;;;44.92;20.70;;;;;;;9.73;100.00;99680.94;4995299;28;20171;-85
2021/12/30 06:43:33;;;;;;;47.28;20.10;;;;;;;9.78;100.00;99684.31;4997570;28;20483;-84
2021/12/30 06:45:58;;;;;;;40.63;18.80;;;;;;;9.74;100.00;99671.16;4998143;28;20033;-83
2021/12/30 06:48:26;;;;;;;39.70;19.58;;;;;;;9.83;100.00;99681.47;4997763;28;20033;-83
2021/12/30 06:50:52;;;;;;;45.13;20.25;;;;;;;9.73;100.00;99675.63;4996755;28;20023;-84
2021/12/30 06:53:31;;;;;;;43.08;19.63;;;;;;;9.84;100.00;99678.75;4996621;28;20062;-86
2021/12/30 06:56:00;;;;;;;49.80;22.60;;;;;;;9.77;100.00;99666.56;4996957;28;20026;-85
2021/12/30 06:58:26;;;;;;;52.75;22.27;;;;;;;9.77;100.00;99665.69;5068542;23;20049;-87
2021/12/30 07:00:51;;;;;;;53.17;22.38;;;;;;;9.85;100.00;99668.94;5019309;28;20033;-89
2021/12/30 07:03:17;;;;;;;56.38;22.98;;;;;;;9.81;100.00;99673.53;5039169;28;20080;-88
2021/12/30 07:05:43;;;;;;;56.67;23.48;;;;;;;9.87;100.00;99680.44;5024873;28;20395;-88
2021/12/30 07:08:08;;;;;;;62.97;25.08;;;;;;;9.94;100.00;99683.75;5019837;28;20033;-90
2021/12/30 07:10:33;;;;;;;71.10;26.38;;;;;;;9.88;100.00;99690.19;5018397;28;20049;-88
2021/12/30 07:12:59;;;;;;;68.07;25.20;;;;;;;9.89;100.00;99696.38;5017239;28;20056;-87
2021/12/30 07:15:24;;;;;;;77.45;26.98;;;;;;;9.90;100.00;99693.66;5017946;28;20026;-88
2021/12/30 07:17:49;;;;;;;70.32;25.63;;;;;;;9.98;100.00;99700.50;5018049;28;20033;-86
2021/12/30 07:20:15;;;;;;;79.72;28.15;;;;;;;10.02;100.00;99697.69;5019392;28;20094;-87
2021/12/30 07:22:41;;;;;;;75.63;28.42;;;;;;;10.04;100.00;99701.16;5021119;28;20033;-88
2021/12/30 07:25:08;;;;;;;87.63;29.80;;;;;;;9.97;100.00;99685.44;5021448;28;20392;-88
2021/12/30 07:27:34;;;;;;;84.97;28.40;;;;;;;9.94;100.00;99683.75;5019460;28;20089;-88
2021/12/30 07:29:59;;;;;;;71.25;26.58;;;;;;;9.91;100.00;99687.41;5020826;28;20431;-88
2021/12/30 07:32:26;;;;;;;82.70;27.20;;;;;;;9.99;100.00;99697.78;5022861;28;20021;-87
2021/12/30 07:34:51;;;;;;;84.70;28.02;;;;;;;10.01;100.00;99703.94;5017240;28;20039;-88
2021/12/30 07:37:16;;;;;;;81.65;26.88;;;;;;;10.01;100.00;99698.59;5020705;28;20018;-88
2021/12/30 07:39:43;;;;;;;79.80;26.10;;;;;;;10.02;100.00;99703.00;5016616;28;20033;-89
2021/12/30 07:42:08;;;;;;;68.93;24.75;;;;;;;10.11;100.00;99717.78;5017079;28;20033;-87
2021/12/30 07:44:34;;;;;;;71.20;25.50;;;;;;;10.13;100.00;99721.25;5016778;28;20030;-87
2021/12/30 07:46:59;;;;;;;69.18;25.98;;;;;;;10.13;100.00;99705.25;5016928;28;20026;-87
2021/12/30 07:49:25;;;;;;;66.70;24.50;;;;;;;10.17;100.00;99709.56;5016398;28;20026;-86
2021/12/30 07:51:59;;;;;;;66.53;23.30;;;;;;;10.26;100.00;99711.00;5015914;28;20034;-85
2021/12/30 07:54:25;;;;;;;73.47;25.67;;;;;;;10.26;100.00;99720.78;5016587;28;20483;-86
2021/12/30 07:56:51;;;;;;;64.75;25.40;;;;;;;10.34;100.00;99725.84;5015680;28;20025;-88
2021/12/30 07:59:16;;;;;;;66.63;25.05;;;;;;;10.34;100.00;99731.19;5018029;28;20071;-86
2021/12/30 08:01:42;;;;;;;64.57;24.15;;;;;;;10.38;100.00;99723.03;5015182;28;20044;-86
2021/12/30 08:04:07;;;;;;;64.75;25.95;;;;;;;10.43;100.00;99732.66;5018180;28;20115;-85
2021/12/30 08:06:33;;;;;;;66.40;24.17;;;;;;;10.58;100.00;99716.06;5016313;28;20018;-84
2021/12/30 08:09:02;;;;;;;57.72;24.98;;;;;;;10.52;100.00;99721.63;5018499;28;20083;-85
2021/12/30 08:11:30;;;;;;;61.97;24.88;;;;;;;10.49;100.00;99721.72;5022586;28;20349;-85
2021/12/30 08:13:56;;;;;;;60.67;24.15;;;;;;;10.47;100.00;99723.56;5025054;28;20113;-86
2021/12/30 08:16:21;;;;;;;62.00;26.27;;;;;;;10.48;100.00;99730.66;5025132;28;20034;-86
2021/12/30 08:18:49;;;;;;;59.22;24.95;;;;;;;10.61;100.00;99715.94;5025592;28;20540;-86
2021/12/30 08:21:19;;;;;;;58.88;27.13;;;;;;;10.66;100.00;99722.91;5025345;28;20018;-86
2021/12/30 08:23:48;;;;;;;55.10;24.73;;;;;;;10.73;100.00;99724.38;5018914;28;20109;-86
2021/12/30 08:26:14;;;;;;;55.88;25.77;;;;;;;10.72;100.00;99723.50;5021178;28;20109;-85
2021/12/30 08:28:40;;;;;;;55.65;25.20;;;;;;;10.72;100.00;99728.00;5019889;28;20435;-85
2021/12/30 08:31:05;;;;;;;49.22;24.15;;;;;;;10.78;100.00;99727.75;5020596;28;20033;-86
2021/12/30 08:33:32;;;;;;;50.72;24.63;;;;;;;10.73;100.00;99735.06;5025190;28;20009;-85
2021/12/30 08:35:57;;;;;;;61.78;26.35;;;;;;;10.71;100.00;99720.91;5034291;28;20033;-86
2021/12/30 08:38:28;;;;;;;45.72;22.63;;;;;;;10.75;100.00;99717.19;5033386;28;20064;-86
2021/12/30 08:40:54;;;;;;;43.58;20.80;;;;;;;10.80;100.00;99719.66;5023543;28;20026;-85
2021/12/30 08:43:20;;;;;;;41.88;20.00;;;;;;;10.77;100.00;99726.00;5022619;28;20041;-86
2021/12/30 08:45:54;;;;;;;38.75;18.42;;;;;;;10.87;100.00;99730.97;5022752;28;20119;-85
2021/12/30 08:48:20;;;;;;;32.35;16.02;;;;;;;10.90;100.00;99725.53;5024847;22;20506;-75
2021/12/30 08:50:46;;;;;;;29.98;15.20;;;;;;;10.90;100.00;99736.22;5030501;28;20053;-75
2021/12/30 08:53:13;;;;;;;27.75;14.80;;;;;;;10.92;100.00;99739.69;5015633;28;20485;-75
2021/12/30 08:55:38;;;;;;;24.52;13.48;;;;;;;10.95;100.00;99737.75;5015642;28;20087;-75
2021/12/30 08:58:03;;;;;;;26.38;12.82;;;;;;;10.93;100.00;99749.41;5014892;28;20034;-75
2021/12/30 09:00:33;;;;;;;21.05;11.80;;;;;;;11.00;100.00;99736.69;5014724;28;20032;-75
2021/12/30 09:03:00;;;;;;;19.83;10.55;;;;;;;11.03;100.00;99742.78;5014346;28;20482;-74
2021/12/30 09:05:26;;;;;;;21.45;12.02;;;;;;;11.05;100.00;99740.94;5029881;28;20034;-74
2021/12/30 09:07:52;;;;;;;21.42;11.45;;;;;;;11.01;100.00;99733.06;5014659;28;20022;-74
2021/12/30 09:10:19;;;;;;;19.63;10.98;;;;;;;11.04;100.00;99728.50;5014635;28;20026;-75
2021/12/30 09:12:46;;;;;;;22.10;12.00;;;;;;;11.01;100.00;99733.06;5014798;28;20034;-75
2021/12/30 09:15:16;;;;;;;19.95;10.82;;;;;;;11.06;100.00;99748.00;5015040;28;20053;-75
2021/12/30 09:17:45;;;;;;;18.67;10.38;;;;;;;11.21;100.00;99742.09;5014634;28;20026;-75
2021/12/30 09:20:11;;;;;;;17.50;10.15;;;;;;;11.20;100.00;99743.91;5029565;28;20018;-75
2021/12/30 09:22:37;;;;;;;18.40;9.80;;;;;;;11.21;100.00;99766.16;5013161;28;20026;-76
2021/12/30 09:25:07;;;;;;;19.65;10.43;;;;;;;11.20;100.00;99754.59;5014671;28;20026;-75
2021/12/30 09:27:34;;;;;;;19.08;10.73;;;;;;;11.24;100.00;99744.63;5014280;28;20033;-75
2021/12/30 09:29:59;;;;;;;19.67;11.18;;;;;;;11.25;100.00;99741.91;5014216;28;20117;-75
2021/12/30 09:32:25;;;;;;;17.88;9.65;;;;;;;11.26;100.00;99754.31;5014236;28;20109;-76
2021/12/30 09:34:51;;;;;;;15.35;9.10;;;;;;;11.34;100.00;99745.13;5014082;28;20018;-76
2021/12/30 09:37:17;;;;;;;16.00;9.13;;;;;;;11.31;100.00;99761.28;5014076;28;20026;-76
2021/12/30 09:39:42;;;;;;;17.63;10.05;;;;;;;11.32;100.00;99757.66;5014120;28;20111;-76
2021/12/30 09:42:10;;;;;;;17.83;9.18;;;;;;;11.42;100.00;99753.66;5029189;28;20537;-76
2021/12/30 09:44:35;;;;;;;15.13;8.85;;;;;;;11.39;100.00;99760.00;5012707;28;20562;-76
2021/12/30 09:47:00;;;;;;;18.33;10.27;;;;;;;11.43;100.00;99766.13;5014110;28;20137;-76
2021/12/30 09:49:27;;;;;;;20.67;9.63;;;;;;;11.43;100.00;99766.13;5029284;28;20022;-76
2021/12/30 09:51:53;;;;;;;17.90;10.23;;;;;;;11.41;100.00;99762.63;5013792;28;20030;-76
2021/12/30 09:54:18;;;;;;;23.02;10.75;;;;;;;11.42;100.00;99775.06;5014233;28;20113;-75
2021/12/30 09:56:45;;;;;;;19.15;10.30;;;;;;;11.46;100.00;99768.66;5014299;28;20391;-77
2021/12/30 09:59:12;;;;;;;18.08;9.65;;;;;;;11.49;100.00;99779.19;5013831;28;20030;-75
2021/12/30 10:01:40;;;;;;;16.60;8.73;;;;;;;11.51;100.00;99772.00;5029521;28;20014;-77
2021/12/30 10:04:08;;;;;;;15.60;8.57;;;;;;;11.56;100.00;99770.94;5014228;28;20049;-77
2021/12/30 10:06:40;;;;;;;15.43;7.85;;;;;;;11.57;100.00;99767.34;5013854;28;20053;-76
2021/12/30 10:09:11;;;;;;;14.85;8.07;;;;;;;11.59;100.00;99765.47;5014184;28;20025;-77
2021/12/30 10:11:51;;;;;;;12.75;6.78;;;;;;;11.64;100.00;99763.47;5014008;28;20026;-77
2021/12/30 10:14:34;;;;;;;11.63;6.30;;;;;;;11.65;100.00;99759.84;5014103;28;20026;-77
2021/12/30 10:17:21;;;;;;;11.80;6.18;;;;;;;11.68;100.00;99754.34;5013642;28;20018;-77
2021/12/30 10:19:47;;;;;;;12.15;6.85;;;;;;;11.62;100.00;99760.84;5013570;28;20038;-77
2021/12/30 10:22:15;;;;;;;11.88;6.07;;;;;;;11.66;100.00;99756.25;5013629;28;20030;-77
2021/12/30 10:24:41;;;;;;;12.95;7.28;;;;;;;11.70;100.00;99765.84;5013552;28;20030;-77
2021/12/30 10:27:07;;;;;;;11.13;5.80;;;;;;;11.66;100.00;99766.94;5028730;28;20068;-77
2021/12/30 10:29:44;;;;;;;11.93;6.45;;;;;;;11.71;100.00;99769.41;5013404;28;20030;-77
2021/12/30 10:32:25;;;;;;;12.38;6.68;;;;;;;11.68;100.00;99775.75;5028737;28;20045;-77
2021/12/30 10:35:14;;;;;;;11.55;6.70;;;;;;;11.66;100.00;99771.41;5013389;28;20475;-77
2021/12/30 10:37:45;;;;;;;12.35;6.63;;;;;;;11.71;100.00;99772.06;5013785;28;20108;-77
2021/12/30 10:40:29;;;;;;;14.57;7.40;;;;;;;11.71;100.00;99764.94;5013963;28;20068;-76
2021/12/30 10:43:13;;;;;;;;;;;;;;;11.71;100.00;99770.28;5029832;28;20026;-77
2021/12/30 10:45:38;;;;;;;13.73;7.53;;;;;;;11.77;100.00;99777.19;5013611;28;19913;-77
2021/12/30 10:48:07;;;;;;;11.93;7.43;;;;;;;11.75;100.00;99762.97;5013455;28;20037;-77
2021/12/30 10:50:34;;;;;;;16.58;8.55;;;;;;;11.81;100.00;99762.72;5028581;28;20029;-77
2021/12/30 10:52:59;;;;;;;14.35;8.10;;;;;;;11.82;100.00;99767.16;5028680;28;20022;-77
2021/12/30 10:55:24;;;;;;;12.05;7.68;;;;;;;11.85;100.00;99755.44;5013303;28;20364;-77
2021/12/30 10:57:51;;;;;;;14.90;8.00;;;;;;;11.96;100.00;99769.19;5028615;28;20030;-76
2021/12/30 11:00:28;;;;;;;11.80;7.15;;;;;;;11.97;100.00;99772.75;5013031;28;20467;-76
2021/12/30 11:02:53;;;;;;;13.00;7.25;;;;;;;11.99;100.00;99783.38;5013081;28;20105;-76
2021/12/30 11:05:19;;;;;;;11.57;7.15;;;;;;;11.95;100.00;99778.19;5012995;28;20109;-76
2021/12/30 11:07:47;;;;;;;12.80;7.78;;;;;;;11.96;100.00;99785.25;5013522;28;20083;-77
2021/12/30 11:10:14;;;;;;;12.50;8.10;;;;;;;11.97;100.00;99786.13;5028479;28;20443;-77
2021/12/30 11:12:45;;;;;;;12.85;8.05;;;;;;;12.00;100.00;99785.13;5013492;28;20057;-76
2021/12/30 11:15:19;;;;;;;13.20;7.28;;;;;;;12.03;100.00;99790.34;5013092;28;20025;-75